createdAt,value
2019-03-15T00:04:58.974Z,14.60
2019-03-15T00:10:10.442Z,15.40
2019-03-15T00:15:18.258Z,16.77
2019-03-15T00:20:23.340Z,14.50
2019-03-15T00:25:29.682Z,17.07
2019-03-15T00:30:34.754Z,17.23
2019-03-15T00:35:49.039Z,18.07
2019-03-15T00:40:54.560Z,17.30
2019-03-15T00:46:06.508Z,16.43
2019-03-15T00:51:12.151Z,18.53
2019-03-15T00:56:18.610Z,17.30
2019-03-15T01:01:24.894Z,17.50
2019-03-15T01:06:29.992Z,16.70
2019-03-15T01:11:34.986Z,16.13
2019-03-15T01:16:40.416Z,15.97
2019-03-15T01:21:45.388Z,17.33
2019-03-15T01:26:50.485Z,18.83
2019-03-15T01:31:55.493Z,17.67
2019-03-15T01:37:01.611Z,16.40
2019-03-15T01:42:06.930Z,15.20
2019-03-15T01:47:13.314Z,15.90
2019-03-15T01:52:18.372Z,16.07
2019-03-15T01:57:23.872Z,17.33
2019-03-15T02:02:29.190Z,18.83
2019-03-15T02:07:34.826Z,16.83
2019-03-15T02:12:39.874Z,15.60
2019-03-15T02:17:45.314Z,18.83
2019-03-15T02:22:50.424Z,17.50
2019-03-15T02:28:14.528Z,17.07
2019-03-15T02:33:20.101Z,18.20
2019-03-15T02:38:25.375Z,17.20
2019-03-15T02:43:31.464Z,18.20
2019-03-15T02:48:36.963Z,17.33
2019-03-15T02:53:43.291Z,17.07
2019-03-15T02:58:50.447Z,20.30
2019-03-15T03:03:57.560Z,20.83
2019-03-15T03:09:03.367Z,27.17
2019-03-15T03:19:51.677Z,18.30
2019-03-15T03:25:01.534Z,19.60
2019-03-15T03:30:17.171Z,20.67
2019-03-15T03:35:22.672Z,24.17
2019-03-15T03:40:29.732Z,23.87
2019-03-15T03:45:35.600Z,23.17
2019-03-15T03:50:41.800Z,22.13
2019-03-15T03:55:48.044Z,23.03
2019-03-15T04:00:54.638Z,23.70
2019-03-15T04:05:59.965Z,22.50
2019-03-15T04:11:05.937Z,20.40
2019-03-15T04:16:11.378Z,19.10
2019-03-15T04:21:16.982Z,18.80
2019-03-15T04:26:22.948Z,18.07
2019-03-15T04:31:28.005Z,17.97
2019-03-15T04:36:33.050Z,18.00
2019-03-15T04:41:38.109Z,19.97
2019-03-15T04:46:43.427Z,26.83
2019-03-15T04:51:48.560Z,23.20
2019-03-15T04:56:54.704Z,20.50
2019-03-15T05:02:01.736Z,20.33
2019-03-15T05:07:11.113Z,17.93
2019-03-15T05:12:17.017Z,17.40
2019-03-15T05:17:23.440Z,22.13
2019-03-15T05:22:28.810Z,21.63
2019-03-15T05:27:33.808Z,22.23
2019-03-15T05:32:39.356Z,20.10
2019-03-15T05:37:44.778Z,22.20
2019-03-15T05:42:49.897Z,21.77
2019-03-15T05:47:55.104Z,17.43
2019-03-15T05:53:00.572Z,22.20
2019-03-15T05:58:05.926Z,21.70
2019-03-15T06:03:12.639Z,21.33
2019-03-15T06:08:20.373Z,24.30
2019-03-15T06:13:25.778Z,24.13
2019-03-15T06:18:30.788Z,25.53
2019-03-15T06:23:38.740Z,30.90
2019-03-15T06:28:44.274Z,27.67
2019-03-15T06:33:50.910Z,22.00
2019-03-15T06:38:56.157Z,23.47
2019-03-15T06:44:02.434Z,23.10
2019-03-15T06:49:10.099Z,25.83
2019-03-15T06:54:15.907Z,25.27
2019-03-15T06:59:21.183Z,22.50
2019-03-15T07:04:26.273Z,20.67
2019-03-15T07:09:31.497Z,18.57
2019-03-15T07:14:36.980Z,22.40
2019-03-15T07:19:42.116Z,24.67
2019-03-15T07:24:47.566Z,23.10
2019-03-15T07:29:53.099Z,26.67
2019-03-15T07:34:58.214Z,22.37
2019-03-15T07:40:05.527Z,22.47
2019-03-15T07:45:12.441Z,24.63
2019-03-15T07:50:23.290Z,20.40
2019-03-15T07:55:29.180Z,19.77
2019-03-15T08:00:41.450Z,21.60
2019-03-15T08:05:48.910Z,19.70
2019-03-15T08:10:55.446Z,22.20
2019-03-15T08:16:01.062Z,22.63
2019-03-15T08:21:06.380Z,21.30
2019-03-15T08:26:13.126Z,21.07
2019-03-15T08:31:18.538Z,25.40
2019-03-15T08:36:24.043Z,26.00
2019-03-15T08:41:28.884Z,26.27
2019-03-15T08:46:36.544Z,19.63
2019-03-15T08:51:41.821Z,20.77
2019-03-15T08:56:47.308Z,24.50
2019-03-15T09:01:52.550Z,19.90
2019-03-15T09:06:59.325Z,19.53
2019-03-15T09:12:05.498Z,23.87
2019-03-15T09:17:13.779Z,19.43
2019-03-15T09:22:19.191Z,19.30
2019-03-15T09:27:24.864Z,23.17
2019-03-15T09:32:30.655Z,23.67
2019-03-15T09:37:36.218Z,18.77
2019-03-15T09:42:41.262Z,20.07
2019-03-15T09:47:48.390Z,19.00
2019-03-15T09:52:53.772Z,21.07
2019-03-15T09:57:58.964Z,16.90
2019-03-15T10:03:05.193Z,17.07
2019-03-15T10:08:11.020Z,16.77
2019-03-15T10:13:16.262Z,20.17
2019-03-15T10:18:22.184Z,16.50
2019-03-15T10:23:27.526Z,18.50
2019-03-15T10:28:33.866Z,18.00
2019-03-15T10:33:49.801Z,16.27
2019-03-15T10:38:46.759Z,17.07
2019-03-15T10:43:52.224Z,16.90
2019-03-15T10:48:59.656Z,17.00
2019-03-15T10:54:06.132Z,16.67
2019-03-15T10:59:14.066Z,16.17
2019-03-15T11:04:33.081Z,16.77
2019-03-15T11:09:39.465Z,15.43
2019-03-15T11:14:44.500Z,15.57
2019-03-15T11:19:49.567Z,17.17
2019-03-15T11:24:55.053Z,19.37
2019-03-15T11:30:00.439Z,19.33
2019-03-15T11:35:08.238Z,17.20
2019-03-15T11:40:14.498Z,15.57
2019-03-15T11:45:19.782Z,19.37
2019-03-15T11:50:25.302Z,19.23
2019-03-15T11:55:31.020Z,18.60
2019-03-15T12:00:37.092Z,16.40
2019-03-15T12:05:43.442Z,16.73
2019-03-15T12:10:49.009Z,14.40
2019-03-15T12:15:54.265Z,15.37
2019-03-15T12:20:59.413Z,15.40
2019-03-15T12:26:04.980Z,16.37
2019-03-15T12:31:10.827Z,18.33
2019-03-15T12:36:17.046Z,19.63
2019-03-15T12:41:24.755Z,16.30
2019-03-15T12:46:30.504Z,17.33
2019-03-15T12:51:37.223Z,17.90
2019-03-15T12:56:53.187Z,21.03
2019-03-15T13:01:50.866Z,17.30
2019-03-15T13:07:09.152Z,19.90
2019-03-15T13:12:15.203Z,18.97
2019-03-15T13:17:59.837Z,18.13
2019-03-15T13:23:05.286Z,17.30
2019-03-15T13:28:11.364Z,16.97
2019-03-15T13:33:20.821Z,17.77
2019-03-15T13:38:23.161Z,17.27
2019-03-15T13:43:28.328Z,16.17
2019-03-15T13:48:33.818Z,17.37
2019-03-15T13:53:39.164Z,16.97
2019-03-15T13:58:56.728Z,20.90
2019-03-15T14:03:52.283Z,15.67
2019-03-15T14:09:16.369Z,16.77
2019-03-15T14:14:21.686Z,17.20
2019-03-15T14:19:27.180Z,17.13
2019-03-15T14:24:32.500Z,17.13
2019-03-15T14:29:38.011Z,16.67
2019-03-15T14:34:43.419Z,18.90
2019-03-15T14:39:57.907Z,19.10
2019-03-15T14:45:03.508Z,18.13
2019-03-15T14:50:08.953Z,16.03
2019-03-15T14:55:14.701Z,16.13
2019-03-15T15:00:20.493Z,17.53
2019-03-15T15:05:27.718Z,21.07
2019-03-15T15:10:33.042Z,17.13
2019-03-15T15:15:38.353Z,21.87
2019-03-15T15:20:45.875Z,18.57
2019-03-15T15:25:56.156Z,19.07
2019-03-15T15:31:01.481Z,19.53
2019-03-15T15:36:06.823Z,18.77
2019-03-15T15:41:12.070Z,17.93
2019-03-15T15:46:28.186Z,17.70
2019-03-15T15:51:33.400Z,25.80
2019-03-15T15:56:55.691Z,30.97
2019-03-15T16:02:02.030Z,21.03
2019-03-15T16:07:11.050Z,22.00
2019-03-15T16:12:19.153Z,19.53
2019-03-15T16:17:26.394Z,20.97
2019-03-15T16:22:31.874Z,17.73
2019-03-15T16:27:38.484Z,17.77
2019-03-15T16:32:44.832Z,18.63
2019-03-15T16:37:55.153Z,21.77
2019-03-15T16:43:00.565Z,18.87
2019-03-15T16:48:07.006Z,18.10
2019-03-15T16:53:12.109Z,19.33
2019-03-15T16:58:17.357Z,18.00
2019-03-15T17:03:22.624Z,18.27
2019-03-15T17:08:28.415Z,18.67
2019-03-15T17:13:37.747Z,17.70
2019-03-15T17:18:44.936Z,17.33
2019-03-15T17:23:51.393Z,19.13
2019-03-15T17:29:19.813Z,20.47
2019-03-15T17:34:25.130Z,20.97
2019-03-15T17:39:30.561Z,20.00
2019-03-15T17:44:36.469Z,17.13
2019-03-15T17:49:46.863Z,20.63
2019-03-15T17:54:54.496Z,18.87
2019-03-15T18:00:09.088Z,20.03
2019-03-15T18:05:15.110Z,22.03
2019-03-15T18:10:25.689Z,22.60
2019-03-15T18:15:30.821Z,23.27
2019-03-15T18:20:36.311Z,24.07
2019-03-15T18:25:42.167Z,23.53
2019-03-15T18:30:47.963Z,21.37
2019-03-15T18:36:14.932Z,22.37
2019-03-15T18:41:20.412Z,30.00
2019-03-15T18:46:25.773Z,25.43
2019-03-15T18:51:33.207Z,20.93
2019-03-15T18:56:40.243Z,20.13
2019-03-15T19:01:46.003Z,19.50
2019-03-15T19:06:51.263Z,18.37
2019-03-15T19:11:56.682Z,18.67
2019-03-15T19:17:02.288Z,18.03
2019-03-15T19:22:10.009Z,19.37
2019-03-15T19:27:15.923Z,18.67
2019-03-15T19:32:22.081Z,16.87
2019-03-15T19:37:27.152Z,17.77
2019-03-15T19:42:33.857Z,17.47
2019-03-15T19:47:38.983Z,17.87
2019-03-15T19:52:44.240Z,18.50
2019-03-15T19:57:51.129Z,17.23
2019-03-15T20:02:59.891Z,17.13
2019-03-15T20:08:06.230Z,19.00
2019-03-15T20:13:15.291Z,17.53
2019-03-15T20:24:07.283Z,19.03
2019-03-15T20:29:22.953Z,16.60
2019-03-15T20:34:28.322Z,16.53
2019-03-15T20:39:35.116Z,18.27
2019-03-15T20:44:41.317Z,16.57
2019-03-15T20:50:04.550Z,18.73
2019-03-15T20:55:11.025Z,20.33
2019-03-15T21:00:34.845Z,16.20
2019-03-15T21:05:31.982Z,17.70
2019-03-15T21:10:37.903Z,16.00
2019-03-15T21:15:46.871Z,16.80
2019-03-15T21:20:54.200Z,15.67
2019-03-15T21:26:00.452Z,17.40
2019-03-15T21:31:07.788Z,18.00
2019-03-15T21:36:13.323Z,16.90
2019-03-15T21:41:18.678Z,17.90
2019-03-15T21:46:24.697Z,18.47
2019-03-15T21:51:30.061Z,19.27
2019-03-15T21:56:35.823Z,18.37
2019-03-15T22:01:41.513Z,22.10
2019-03-15T22:06:46.618Z,19.70
2019-03-15T22:11:51.787Z,18.83
2019-03-15T22:16:59.032Z,17.47
2019-03-15T22:22:04.507Z,19.80
2019-03-15T22:27:09.633Z,19.23
2019-03-15T22:32:14.687Z,20.90
2019-03-15T22:37:20.751Z,25.60
2019-03-15T22:42:25.763Z,28.97
2019-03-15T22:47:32.191Z,24.00
2019-03-15T22:52:37.226Z,23.90
2019-03-15T22:57:43.295Z,23.20
2019-03-15T23:02:48.361Z,23.77
2019-03-15T23:07:54.255Z,23.57
2019-03-15T23:12:59.750Z,20.23
2019-03-15T23:18:05.939Z,23.77
2019-03-15T23:23:23.411Z,28.90
2019-03-15T23:28:20.413Z,28.57
2019-03-15T23:33:29.517Z,31.03
2019-03-15T23:38:54.853Z,24.50
2019-03-15T23:44:00.453Z,22.33
2019-03-15T23:49:05.849Z,26.43
2019-03-15T23:54:10.869Z,24.03
2019-03-15T23:59:16.199Z,24.17
